Time;durP1;ratioP1;P1;durP2;ratioP2;P2;SDS_P1;SDS_P2;PMS_P1;PMS_P2;Temp;Humidity;BMP_temperature;BMP_pressure;BME280_temperature;BME280_humidity;BME280_pressure;Samples;Min_cycle;Max_cycle;Signal;HPM_P1;HPM_P2
2022/12/05 00:01:41;;;;;;;0.22;0.22;;;;;;;;;;4141784;28;20053;-45
2022/12/05 00:03:44;;;;;;;0.47;0.40;;;;;;;;;;4136767;28;20058;-50
2022/12/05 00:05:45;;;;;;;0.47;0.30;;;;;;;;;;4146615;28;21415;-46
2022/12/05 00:07:47;;;;;;;0.40;0.40;;;;;;;;;;4138529;28;20066;-45
2022/12/05 00:09:49;;;;;;;0.40;0.40;;;;;;;;;;4149654;28;20100;-45
2022/12/05 00:11:51;;;;;;;0.55;0.40;;;;;;;;;;4149396;28;20081;-46
2022/12/05 00:13:53;;;;;;;0.80;0.50;;;;;;;;;;4135654;28;20465;-45
2022/12/05 00:15:55;;;;;;;0.40;0.30;;;;;;;;;;4143313;28;20054;-45
2022/12/05 00:17:57;;;;;;;0.73;0.50;;;;;;;;;;4141393;28;20116;-47
2022/12/05 00:19:58;;;;;;;0.40;0.40;;;;;;;;;;4149374;28;20060;-44
2022/12/05 00:21:59;;;;;;;0.50;0.40;;;;;;;;;;4149056;28;20061;-48
2022/12/05 00:24:01;;;;;;;1.02;0.60;;;;;;;;;;4131514;28;20121;-46
2022/12/05 00:26:04;;;;;;;0.30;0.30;;;;;;;;;;4149210;28;20053;-46
2022/12/05 00:28:05;;;;;;;0.20;0.20;;;;;;;;;;4141103;28;20057;-46
2022/12/05 00:30:07;;;;;;;0.95;0.30;;;;;;;;;;4117821;28;20438;-44
2022/12/05 00:32:08;;;;;;;0.57;0.40;;;;;;;;;;4125325;28;20117;-46
2022/12/05 00:34:10;;;;;;;0.60;0.30;;;;;;;;;;4139635;28;20058;-46
2022/12/05 00:36:31;;;;;;;0.55;0.40;;;;;;;;;;4139221;28;20051;-47
2022/12/05 00:38:33;;;;;;;0.52;0.43;;;;;;;;;;4127643;28;20059;-46
2022/12/05 00:40:35;;;;;;;0.43;0.43;;;;;;;;;;4114909;28;20521;-48
2022/12/05 00:42:36;;;;;;;0.30;0.30;;;;;;;;;;4124165;28;20054;-49
2022/12/05 00:44:37;;;;;;;0.40;0.40;;;;;;;;;;4144447;28;20421;-49
2022/12/05 00:46:39;;;;;;;0.38;0.38;;;;;;;;;;4147408;28;20061;-47
2022/12/05 00:48:40;;;;;;;0.30;0.30;;;;;;;;;;4136933;28;20054;-48
2022/12/05 00:50:42;;;;;;;0.40;0.40;;;;;;;;;;4141366;28;20058;-49
2022/12/05 00:52:43;;;;;;;0.32;0.32;;;;;;;;;;4142933;28;20417;-47
2022/12/05 00:54:44;;;;;;;0.60;0.30;;;;;;;;;;4117856;28;20066;-46
2022/12/05 00:56:46;;;;;;;0.60;0.50;;;;;;;;;;4148778;28;20054;-47
2022/12/05 00:58:49;;;;;;;0.38;0.35;;;;;;;;;;4148640;28;20453;-45
2022/12/05 01:00:51;;;;;;;0.88;0.40;;;;;;;;;;4148548;28;20112;-47
2022/12/05 01:02:52;;;;;;;0.60;0.40;;;;;;;;;;4147996;28;20053;-45
2022/12/05 01:04:53;;;;;;;0.43;0.40;;;;;;;;;;4135916;28;20050;-45
2022/12/05 01:06:56;;;;;;;0.35;0.35;;;;;;;;;;4148946;28;20064;-47
2022/12/05 01:08:57;;;;;;;0.40;0.40;;;;;;;;;;4138926;28;20204;-46
2022/12/05 01:10:58;;;;;;;0.40;0.40;;;;;;;;;;4137727;28;20094;-46
2022/12/05 01:12:59;;;;;;;0.57;0.57;;;;;;;;;;4118658;28;20106;-49
2022/12/05 01:15:01;;;;;;;0.40;0.40;;;;;;;;;;4126822;28;20418;-52
2022/12/05 01:17:02;;;;;;;0.50;0.47;;;;;;;;;;4116166;28;20090;-47
2022/12/05 01:19:10;;;;;;;0.68;0.40;;;;;;;;;;4127424;28;20081;-48
2022/12/05 01:21:11;;;;;;;0.40;0.40;;;;;;;;;;4098687;28;20055;-48
2022/12/05 01:23:13;;;;;;;0.50;0.40;;;;;;;;;;4121007;28;20109;-46
2022/12/05 01:25:14;;;;;;;0.30;0.30;;;;;;;;;;4123884;28;20054;-45
2022/12/05 01:27:15;;;;;;;1.02;0.60;;;;;;;;;;4098774;28;20499;-45
2022/12/05 01:29:19;;;;;;;0.47;0.40;;;;;;;;;;4129052;28;20102;-50
2022/12/05 01:31:27;;;;;;;0.50;0.50;;;;;;;;;;4120227;28;20391;-46
2022/12/05 01:33:28;;;;;;;0.40;0.25;;;;;;;;;;4132027;28;20054;-47
2022/12/05 01:35:34;;;;;;;0.60;0.50;;;;;;;;;;4132182;28;20058;-46
2022/12/05 01:37:35;;;;;;;0.40;0.40;;;;;;;;;;4131115;28;20058;-45
2022/12/05 01:39:36;;;;;;;0.60;0.40;;;;;;;;;;4132007;28;20498;-50
2022/12/05 01:41:46;;;;;;;0.60;0.50;;;;;;;;;;4123728;28;20106;-46
2022/12/05 01:43:54;;;;;;;0.63;0.40;;;;;;;;;;4127845;28;20101;-46
2022/12/05 01:45:56;;;;;;;0.85;0.68;;;;;;;;;;4131777;28;20054;-45
2022/12/05 01:47:59;;;;;;;0.55;0.40;;;;;;;;;;4118615;28;20058;-45
2022/12/05 01:50:00;;;;;;;0.35;0.30;;;;;;;;;;4089206;28;20054;-47
2022/12/05 01:52:13;;;;;;;0.30;0.30;;;;;;;;;;4131604;28;20117;-47
2022/12/05 01:54:16;;;;;;;0.82;0.40;;;;;;;;;;4102065;28;20054;-46
2022/12/05 01:56:19;;;;;;;0.30;0.30;;;;;;;;;;4131481;28;20051;-45
2022/12/05 01:58:20;;;;;;;0.28;0.28;;;;;;;;;;4131617;28;20055;-47
2022/12/05 02:00:22;;;;;;;0.50;0.40;;;;;;;;;;4130818;28;20068;-50
2022/12/05 02:02:23;;;;;;;0.45;0.40;;;;;;;;;;4118750;28;20066;-46
2022/12/05 02:04:26;;;;;;;0.40;0.32;;;;;;;;;;4124297;28;20090;-45
2022/12/05 02:06:27;;;;;;;0.55;0.50;;;;;;;;;;4125300;28;20086;-45
2022/12/05 02:08:28;;;;;;;0.40;0.35;;;;;;;;;;4113636;28;20411;-48
2022/12/05 02:10:40;;;;;;;0.30;0.30;;;;;;;;;;4134083;28;20101;-46
2022/12/05 02:12:42;;;;;;;0.40;0.35;;;;;;;;;;4147611;28;20506;-45
2022/12/05 02:14:57;;;;;;;0.30;0.30;;;;;;;;;;4152235;28;20394;-47
2022/12/05 02:17:01;;;;;;;0.40;0.40;;;;;;;;;;4161199;28;20053;-45
2022/12/05 02:19:08;;;;;;;0.55;0.50;;;;;;;;;;4147329;28;20057;-46
2022/12/05 02:21:47;;;;;;;0.40;0.40;;;;;;;;;;4121131;28;20502;-46
2022/12/05 02:24:10;;;;;;;0.30;0.30;;;;;;;;;;4134783;28;20045;-46
2022/12/05 02:26:23;;;;;;;0.40;0.30;;;;;;;;;;4137607;28;20051;-46
2022/12/05 02:29:00;;;;;;;0.50;0.50;;;;;;;;;;4126758;28;20058;-46
2022/12/05 02:31:13;;;;;;;0.68;0.50;;;;;;;;;;4122106;28;20522;-47
2022/12/05 02:33:25;;;;;;;0.40;0.38;;;;;;;;;;4140700;28;20050;-46
2022/12/05 02:35:38;;;;;;;0.50;0.40;;;;;;;;;;4162397;28;20053;-46
2022/12/05 02:38:04;;;;;;;0.40;0.30;;;;;;;;;;4119714;28;20054;-44
2022/12/05 02:40:23;;;;;;;0.55;0.50;;;;;;;;;;4146840;28;20105;-47
2022/12/05 02:42:32;;;;;;;0.47;0.47;;;;;;;;;;4162510;28;20088;-45
2022/12/05 02:44:42;;;;;;;0.40;0.30;;;;;;;;;;4129815;28;20441;-49
2022/12/05 02:46:45;;;;;;;0.60;0.52;;;;;;;;;;4133051;28;20063;-45
2022/12/05 02:48:50;;;;;;;0.65;0.52;;;;;;;;;;4140312;28;20054;-46
2022/12/05 02:50:52;;;;;;;0.30;0.30;;;;;;;;;;4140362;28;20066;-45
2022/12/05 02:52:57;;;;;;;0.40;0.30;;;;;;;;;;4121278;28;20089;-46
2022/12/05 02:54:58;;;;;;;0.35;0.30;;;;;;;;;;4136541;28;20078;-50
2022/12/05 02:57:00;;;;;;;0.40;0.40;;;;;;;;;;4136634;28;20105;-47
2022/12/05 02:59:01;;;;;;;1.02;0.30;;;;;;;;;;4146610;28;20049;-45
2022/12/05 03:01:02;;;;;;;0.47;0.47;;;;;;;;;;4116378;28;20430;-47
2022/12/05 03:03:13;;;;;;;0.40;0.30;;;;;;;;;;4118848;28;20459;-48
2022/12/05 03:05:37;;;;;;;0.28;0.28;;;;;;;;;;4151057;28;20096;-46
2022/12/05 03:07:40;;;;;;;0.43;0.40;;;;;;;;;;4141897;28;20061;-46
2022/12/05 03:09:57;;;;;;;0.30;0.30;;;;;;;;;;4134645;28;20495;-44
2022/12/05 03:12:19;;;;;;;0.47;0.40;;;;;;;;;;4127465;28;20062;-46
2022/12/05 03:14:30;;;;;;;0.30;0.30;;;;;;;;;;4128180;28;20054;-45
2022/12/05 03:16:36;;;;;;;0.52;0.32;;;;;;;;;;4124638;28;20054;-45
2022/12/05 03:18:58;;;;;;;0.40;0.35;;;;;;;;;;4145379;28;20054;-50
2022/12/05 03:21:04;;;;;;;0.60;0.50;;;;;;;;;;4136970;28;20060;-51
2022/12/05 03:23:11;;;;;;;0.63;0.43;;;;;;;;;;4141412;28;20069;-46
2022/12/05 03:25:13;;;;;;;0.40;0.32;;;;;;;;;;4145429;28;20497;-46
2022/12/05 03:27:46;;;;;;;0.43;0.30;;;;;;;;;;4139374;28;20065;-44
2022/12/05 03:29:53;;;;;;;0.40;0.40;;;;;;;;;;4112907;28;20062;-46
2022/12/05 03:32:17;;;;;;;0.50;0.40;;;;;;;;;;4141213;28;20104;-45
2022/12/05 03:34:34;;;;;;;0.45;0.45;;;;;;;;;;4139568;28;20366;-47
2022/12/05 03:36:43;;;;;;;0.50;0.40;;;;;;;;;;4113140;28;20051;-48
2022/12/05 03:38:50;;;;;;;0.63;0.50;;;;;;;;;;4136206;28;20105;-46
2022/12/05 03:41:13;;;;;;;0.43;0.40;;;;;;;;;;4118735;28;20050;-46
2022/12/05 03:43:15;;;;;;;0.32;0.32;;;;;;;;;;4118431;28;20422;-50
2022/12/05 03:45:22;;;;;;;0.30;0.30;;;;;;;;;;4142850;28;20061;-45
2022/12/05 03:47:35;;;;;;;0.55;0.40;;;;;;;;;;4119935;28;20062;-47
2022/12/05 03:49:42;;;;;;;0.25;0.25;;;;;;;;;;4139526;28;20057;-43
2022/12/05 03:51:52;;;;;;;0.52;0.40;;;;;;;;;;4121353;28;20419;-45
2022/12/05 03:53:59;;;;;;;0.60;0.47;;;;;;;;;;4122406;28;20059;-46
2022/12/05 03:56:07;;;;;;;0.32;0.32;;;;;;;;;;4156789;28;20099;-45
2022/12/05 03:58:17;;;;;;;0.50;0.40;;;;;;;;;;4144284;28;20056;-46
2022/12/05 04:00:20;;;;;;;0.43;0.30;;;;;;;;;;4143712;28;20477;-45
2022/12/05 04:02:32;;;;;;;0.40;0.40;;;;;;;;;;4128089;28;20058;-49
2022/12/05 04:04:37;;;;;;;0.63;0.40;;;;;;;;;;4128920;28;20057;-47
2022/12/05 04:06:39;;;;;;;0.43;0.40;;;;;;;;;;4160756;28;20111;-45
2022/12/05 04:08:45;;;;;;;0.45;0.45;;;;;;;;;;4141543;28;20108;-46
2022/12/05 04:10:48;;;;;;;0.35;0.35;;;;;;;;;;4136148;28;20097;-44
2022/12/05 04:12:51;;;;;;;0.38;0.38;;;;;;;;;;4153822;28;20441;-51
2022/12/05 04:14:56;;;;;;;0.70;0.47;;;;;;;;;;4164343;28;20057;-45
2022/12/05 04:17:02;;;;;;;0.52;0.40;;;;;;;;;;4149254;28;20461;-47
2022/12/05 04:19:24;;;;;;;0.52;0.50;;;;;;;;;;4148024;28;20104;-45
2022/12/05 04:21:37;;;;;;;0.40;0.40;;;;;;;;;;4149437;28;20057;-46
2022/12/05 04:23:38;;;;;;;0.40;0.40;;;;;;;;;;4148937;28;20468;-45
2022/12/05 04:25:53;;;;;;;0.30;0.30;;;;;;;;;;4149392;28;20188;-50
2022/12/05 04:28:06;;;;;;;0.55;0.40;;;;;;;;;;4124185;28;20061;-46
2022/12/05 04:30:22;;;;;;;0.52;0.32;;;;;;;;;;4132064;28;20050;-45
2022/12/05 04:32:26;;;;;;;0.47;0.30;;;;;;;;;;4163936;28;20353;-47
2022/12/05 04:34:29;;;;;;;0.60;0.45;;;;;;;;;;4163711;28;20061;-46
2022/12/05 04:36:34;;;;;;;0.50;0.43;;;;;;;;;;4148768;28;20521;-51
2022/12/05 04:38:47;;;;;;;0.30;0.30;;;;;;;;;;4158288;28;20108;-47
2022/12/05 04:40:58;;;;;;;0.35;0.30;;;;;;;;;;4163781;28;20538;-45
2022/12/05 04:43:01;;;;;;;0.40;0.40;;;;;;;;;;4148750;28;20054;-44
2022/12/05 04:45:07;;;;;;;0.63;0.30;;;;;;;;;;4142762;28;20050;-47
2022/12/05 04:47:09;;;;;;;0.30;0.30;;;;;;;;;;4131314;28;20056;-45
2022/12/05 04:49:15;;;;;;;0.30;0.25;;;;;;;;;;4141572;28;20482;-47
2022/12/05 04:51:23;;;;;;;0.77;0.40;;;;;;;;;;4146976;28;20109;-46
2022/12/05 04:53:26;;;;;;;0.47;0.40;;;;;;;;;;4143987;28;20057;-47
2022/12/05 04:55:30;;;;;;;0.43;0.30;;;;;;;;;;4125219;28;20054;-46
2022/12/05 04:58:01;;;;;;;0.43;0.40;;;;;;;;;;4141549;28;20058;-45
2022/12/05 05:00:04;;;;;;;1.00;0.30;;;;;;;;;;4138467;28;20096;-46
2022/12/05 05:02:07;;;;;;;0.30;0.30;;;;;;;;;;4130278;28;20061;-46
2022/12/05 05:04:46;;;;;;;0.40;0.40;;;;;;;;;;4141245;28;20417;-50
2022/12/05 05:06:48;;;;;;;0.30;0.30;;;;;;;;;;4138250;28;20053;-44
2022/12/05 05:08:54;;;;;;;0.60;0.43;;;;;;;;;;4140430;28;20390;-45
2022/12/05 05:11:18;;;;;;;0.70;0.60;;;;;;;;;;4133417;28;20521;-45
2022/12/05 05:13:19;;;;;;;0.55;0.40;;;;;;;;;;4122151;28;20200;-45
2022/12/05 05:15:21;;;;;;;0.73;0.40;;;;;;;;;;4126448;28;20050;-48
2022/12/05 05:17:22;;;;;;;0.50;0.30;;;;;;;;;;4124662;28;20054;-45
2022/12/05 05:19:23;;;;;;;0.35;0.32;;;;;;;;;;4132203;28;20058;-45
2022/12/05 05:21:27;;;;;;;1.08;0.57;;;;;;;;;;4126023;28;20105;-47
2022/12/05 05:23:29;;;;;;;0.70;0.40;;;;;;;;;;4123417;28;20063;-45
2022/12/05 05:25:30;;;;;;;0.63;0.45;;;;;;;;;;4124155;28;20101;-49
2022/12/05 05:27:31;;;;;;;1.42;0.30;;;;;;;;;;4121784;28;20109;-46
2022/12/05 05:29:33;;;;;;;0.88;0.60;;;;;;;;;;4127750;28;20061;-46
2022/12/05 05:31:36;;;;;;;0.68;0.52;;;;;;;;;;4124445;28;20054;-46
2022/12/05 05:33:37;;;;;;;0.98;0.50;;;;;;;;;;4124415;28;20442;-50
2022/12/05 05:35:39;;;;;;;0.60;0.50;;;;;;;;;;4122263;28;20050;-51
2022/12/05 05:37:41;;;;;;;0.60;0.40;;;;;;;;;;4121216;28;20114;-46
2022/12/05 05:39:42;;;;;;;0.50;0.43;;;;;;;;;;4120667;28;20110;-50
2022/12/05 05:41:43;;;;;;;0.80;0.45;;;;;;;;;;4124396;28;20058;-48
2022/12/05 05:43:45;;;;;;;0.40;0.40;;;;;;;;;;4118443;28;20059;-47
2022/12/05 05:45:46;;;;;;;1.08;0.57;;;;;;;;;;4121455;28;20051;-47
2022/12/05 05:47:48;;;;;;;0.57;0.43;;;;;;;;;;4121261;28;20066;-48
2022/12/05 05:49:50;;;;;;;0.47;0.40;;;;;;;;;;4125862;28;20058;-49
2022/12/05 05:51:51;;;;;;;0.82;0.50;;;;;;;;;;4131287;28;20058;-50
2022/12/05 05:53:53;;;;;;;1.17;0.65;;;;;;;;;;4120932;28;20506;-49
2022/12/05 05:55:54;;;;;;;0.63;0.60;;;;;;;;;;4121212;28;20487;-50
2022/12/05 05:57:55;;;;;;;0.55;0.43;;;;;;;;;;4138103;28;20058;-45
2022/12/05 05:59:56;;;;;;;1.15;0.50;;;;;;;;;;4124306;28;20054;-45
2022/12/05 06:01:58;;;;;;;0.65;0.40;;;;;;;;;;4124801;28;20069;-47
2022/12/05 06:04:00;;;;;;;0.47;0.47;;;;;;;;;;4117719;28;20059;-47
2022/12/05 06:06:04;;;;;;;0.60;0.40;;;;;;;;;;4119817;28;20463;-47
2022/12/05 06:08:05;;;;;;;0.50;0.40;;;;;;;;;;4121334;28;20645;-47
2022/12/05 06:10:07;;;;;;;0.68;0.50;;;;;;;;;;4129302;28;20069;-45
2022/12/05 06:12:08;;;;;;;1.00;0.30;;;;;;;;;;4128920;28;20081;-48
2022/12/05 06:14:10;;;;;;;0.75;0.55;;;;;;;;;;4144894;28;20144;-47
2022/12/05 06:16:14;;;;;;;1.67;0.50;;;;;;;;;;4120507;28;20058;-46
2022/12/05 06:18:16;;;;;;;1.55;0.50;;;;;;;;;;4127513;28;20058;-46
2022/12/05 06:20:17;;;;;;;0.70;0.60;;;;;;;;;;4139361;28;20566;-47
2022/12/05 06:22:18;;;;;;;0.77;0.40;;;;;;;;;;4137791;28;20097;-49
2022/12/05 06:24:19;;;;;;;0.80;0.50;;;;;;;;;;4152165;28;20057;-49
2022/12/05 06:26:22;;;;;;;0.47;0.45;;;;;;;;;;4144697;28;20544;-44
2022/12/05 06:28:24;;;;;;;0.60;0.60;;;;;;;;;;4137274;28;20363;-50
2022/12/05 06:30:25;;;;;;;0.57;0.40;;;;;;;;;;4138966;28;20054;-47
2022/12/05 06:32:27;;;;;;;0.60;0.40;;;;;;;;;;4138078;28;20124;-45
2022/12/05 06:34:31;;;;;;;0.52;0.43;;;;;;;;;;4140834;28;20497;-50
2022/12/05 06:36:32;;;;;;;0.30;0.30;;;;;;;;;;4144228;28;20065;-49
2022/12/05 06:38:34;;;;;;;0.90;0.50;;;;;;;;;;4143161;28;20062;-49
2022/12/05 06:40:43;;;;;;;2.35;0.55;;;;;;;;;;4142153;28;20054;-48
2022/12/05 06:42:44;;;;;;;0.50;0.40;;;;;;;;;;4132065;28;20478;-48
2022/12/05 06:44:45;;;;;;;0.43;0.38;;;;;;;;;;4126832;28;20145;-47
2022/12/05 06:46:47;;;;;;;0.60;0.60;;;;;;;;;;4143812;28;20496;-50
2022/12/05 06:48:51;;;;;;;0.75;0.65;;;;;;;;;;4138639;28;20502;-52
2022/12/05 06:50:53;;;;;;;0.73;0.60;;;;;;;;;;4142385;28;20492;-48
2022/12/05 06:52:54;;;;;;;1.05;0.63;;;;;;;;;;4136022;28;20100;-45
2022/12/05 06:54:56;;;;;;;0.77;0.60;;;;;;;;;;4137494;28;20058;-45
2022/12/05 06:56:57;;;;;;;1.65;0.60;;;;;;;;;;4118136;28;20089;-45
2022/12/05 06:58:58;;;;;;;1.45;0.60;;;;;;;;;;4149134;28;20497;-49
2022/12/05 07:03:20;;;;;;;0.68;0.50;;;;;;;;;;4147180;28;20054;-47
2022/12/05 07:05:21;;;;;;;0.60;0.60;;;;;;;;;;4137694;28;21085;-46
2022/12/05 07:07:23;;;;;;;0.77;0.50;;;;;;;;;;4139225;28;20092;-47
2022/12/05 07:11:49;;;;;;;0.50;0.50;;;;;;;;;;4131182;28;20057;-46
2022/12/05 07:13:50;;;;;;;1.48;0.60;;;;;;;;;;4113756;28;20050;-45
2022/12/05 07:15:51;;;;;;;0.52;0.43;;;;;;;;;;4128398;28;20058;-46
2022/12/05 07:17:53;;;;;;;0.80;0.50;;;;;;;;;;4150262;28;20521;-45
2022/12/05 07:19:54;;;;;;;0.50;0.50;;;;;;;;;;4126708;28;20092;-45
2022/12/05 07:21:55;;;;;;;2.10;0.55;;;;;;;;;;4123992;28;20058;-43
2022/12/05 07:23:57;;;;;;;1.65;0.50;;;;;;;;;;4126959;28;20058;-45
2022/12/05 07:25:58;;;;;;;2.50;0.70;;;;;;;;;;4119619;28;20062;-44
2022/12/05 07:27:59;;;;;;;1.55;0.70;;;;;;;;;;4122745;28;20432;-44
2022/12/05 07:30:01;;;;;;;0.55;0.45;;;;;;;;;;4103509;28;20646;-43
2022/12/05 07:32:03;;;;;;;0.73;0.68;;;;;;;;;;4112368;28;20062;-43
2022/12/05 07:34:04;;;;;;;1.05;0.70;;;;;;;;;;4121920;28;20058;-41
2022/12/05 07:36:11;;;;;;;1.40;0.80;;;;;;;;;;4120225;28;20049;-41
2022/12/05 07:38:12;;;;;;;1.13;0.43;;;;;;;;;;4123492;28;20053;-43
2022/12/05 07:40:14;;;;;;;2.15;0.68;;;;;;;;;;4124326;28;20497;-45
2022/12/05 07:42:15;;;;;;;0.50;0.50;;;;;;;;;;4116230;28;20105;-45
2022/12/05 07:44:17;;;;;;;1.05;0.63;;;;;;;;;;4124737;28;20149;-45
2022/12/05 07:46:19;;;;;;;1.05;0.57;;;;;;;;;;4124147;28;20474;-42
2022/12/05 07:48:21;;;;;;;1.95;0.82;;;;;;;;;;4123748;28;20104;-43
2022/12/05 07:50:22;;;;;;;2.97;0.60;;;;;;;;;;4123135;28;20058;-42
2022/12/05 07:52:24;;;;;;;1.80;0.60;;;;;;;;;;4126058;28;20112;-43
2022/12/05 07:54:26;;;;;;;0.75;0.60;;;;;;;;;;4124548;28;20053;-42
2022/12/05 07:56:27;;;;;;;0.50;0.50;;;;;;;;;;4118575;28;20544;-44
2022/12/05 07:58:29;;;;;;;0.93;0.70;;;;;;;;;;4117278;28;20062;-44
2022/12/05 08:00:30;;;;;;;0.50;0.50;;;;;;;;;;4107067;28;20073;-44
2022/12/05 08:02:32;;;;;;;1.30;0.47;;;;;;;;;;4115795;28;20128;-43
2022/12/05 08:04:34;;;;;;;1.10;0.60;;;;;;;;;;4107318;28;20634;-45
2022/12/05 08:06:35;;;;;;;0.98;0.60;;;;;;;;;;4116595;28;20287;-43
2022/12/05 08:08:37;;;;;;;1.00;0.60;;;;;;;;;;4118245;28;20058;-43
2022/12/05 08:10:39;;;;;;;3.30;0.70;;;;;;;;;;4097944;28;20140;-43
2022/12/05 08:12:40;;;;;;;1.55;0.60;;;;;;;;;;4120188;28;20062;-44
2022/12/05 08:14:41;;;;;;;0.70;0.50;;;;;;;;;;4122592;28;20144;-41
2022/12/05 08:16:43;;;;;;;2.38;0.63;;;;;;;;;;4101998;28;21141;-45
2022/12/05 08:18:44;;;;;;;3.58;0.70;;;;;;;;;;4115840;28;20062;-41
2022/12/05 08:20:46;;;;;;;2.05;0.85;;;;;;;;;;4123215;28;20560;-42
2022/12/05 08:22:51;;;;;;;0.60;0.55;;;;;;;;;;4121342;28;20081;-44
2022/12/05 08:24:52;;;;;;;0.90;0.60;;;;;;;;;;4121209;28;20058;-42
2022/12/05 08:26:54;;;;;;;2.55;0.50;;;;;;;;;;4120048;28;20050;-42
2022/12/05 08:28:58;;;;;;;3.70;0.68;;;;;;;;;;4112094;28;20118;-44
2022/12/05 08:31:14;;;;;;;2.35;0.73;;;;;;;;;;4114959;28;20057;-41
2022/12/05 08:33:15;;;;;;;1.38;0.70;;;;;;;;;;4118753;28;20058;-41
2022/12/05 08:35:16;;;;;;;1.33;0.52;;;;;;;;;;4120099;28;20057;-50
2022/12/05 08:37:18;;;;;;;1.92;0.57;;;;;;;;;;4121406;28;20601;-45
2022/12/05 08:39:19;;;;;;;1.38;0.50;;;;;;;;;;4122422;28;20858;-44
2022/12/05 08:41:20;;;;;;;2.08;0.52;;;;;;;;;;4115373;28;20191;-48
2022/12/05 08:43:22;;;;;;;5.18;0.70;;;;;;;;;;4124741;28;20505;-44
2022/12/05 08:45:23;;;;;;;1.55;0.77;;;;;;;;;;4113635;28;20094;-46
2022/12/05 08:47:24;;;;;;;1.65;0.80;;;;;;;;;;4114818;28;20077;-45
2022/12/05 08:49:27;;;;;;;2.38;0.80;;;;;;;;;;4115111;28;20058;-45
2022/12/05 08:51:28;;;;;;;3.00;1.00;;;;;;;;;;4114118;28;20050;-44
2022/12/05 08:53:29;;;;;;;1.17;0.75;;;;;;;;;;4120062;28;20425;-44
2022/12/05 08:55:33;;;;;;;1.95;0.70;;;;;;;;;;4115756;28;20133;-47
2022/12/05 08:57:35;;;;;;;1.90;0.73;;;;;;;;;;4112473;28;20746;-46
2022/12/05 08:59:36;;;;;;;2.22;0.82;;;;;;;;;;4118948;28;20492;-43
2022/12/05 09:01:39;;;;;;;3.20;0.88;;;;;;;;;;4105011;28;20058;-44
2022/12/05 09:03:41;;;;;;;5.82;1.02;;;;;;;;;;4113683;28;20591;-41
2022/12/05 09:05:42;;;;;;;1.30;0.60;;;;;;;;;;4122936;28;20429;-41
2022/12/05 09:07:44;;;;;;;1.25;0.70;;;;;;;;;;4119462;28;20072;-43
2022/12/05 09:09:45;;;;;;;1.45;0.60;;;;;;;;;;4116315;28;20108;-43
2022/12/05 09:11:49;;;;;;;1.38;0.73;;;;;;;;;;4120630;28;20159;-45
2022/12/05 09:13:52;;;;;;;3.03;0.77;;;;;;;;;;4114634;28;20126;-45
2022/12/05 09:15:53;;;;;;;0.95;0.70;;;;;;;;;;4120088;28;20090;-43
2022/12/05 09:17:54;;;;;;;1.77;0.70;;;;;;;;;;4120635;28;20054;-43
2022/12/05 09:19:56;;;;;;;2.35;0.77;;;;;;;;;;4127389;28;20064;-44
2022/12/05 09:21:57;;;;;;;2.40;1.00;;;;;;;;;;4116655;28;20096;-43
2022/12/05 09:23:59;;;;;;;1.70;0.85;;;;;;;;;;4120663;28;20062;-45
2022/12/05 09:26:00;;;;;;;1.60;0.82;;;;;;;;;;4117982;28;20057;-43
2022/12/05 09:28:02;;;;;;;0.90;0.60;;;;;;;;;;4115620;28;21394;-44
2022/12/05 09:30:05;;;;;;;1.85;0.60;;;;;;;;;;4116932;28;20058;-43
2022/12/05 09:32:07;;;;;;;3.58;1.10;;;;;;;;;;4129241;28;20509;-44
2022/12/05 09:34:08;;;;;;;1.58;0.75;;;;;;;;;;4123295;28;20081;-45
2022/12/05 09:36:12;;;;;;;1.60;0.70;;;;;;;;;;4112181;28;20050;-43
2022/12/05 09:38:13;;;;;;;1.45;0.80;;;;;;;;;;4121435;28;22562;-42
2022/12/05 09:40:16;;;;;;;1.15;0.80;;;;;;;;;;4106329;28;20061;-42
2022/12/05 09:42:29;;;;;;;1.00;0.80;;;;;;;;;;4133516;28;20108;-43
2022/12/05 09:44:49;;;;;;;1.73;0.55;;;;;;;;;;4130701;28;20057;-44
2022/12/05 09:46:52;;;;;;;;;;;;;;;;;;4102292;28;20062;-46
2022/12/05 09:48:56;;;;;;;1.52;0.90;;;;;;;;;;4118226;28;19929;-43
2022/12/05 09:51:01;;;;;;;4.28;0.85;;;;;;;;;;4093853;28;20132;-42
2022/12/05 09:53:08;;;;;;;1.98;1.00;;;;;;;;;;4118173;28;20092;-44
2022/12/05 09:55:13;;;;;;;1.15;0.70;;;;;;;;;;4106958;28;20058;-43
2022/12/05 09:57:15;;;;;;;2.58;0.85;;;;;;;;;;4111314;28;20551;-43
2022/12/05 09:59:19;;;;;;;1.73;0.80;;;;;;;;;;4125019;28;20064;-43
2022/12/05 10:01:41;;;;;;;2.75;0.65;;;;;;;;;;4109023;28;20144;-42
2022/12/05 10:03:47;;;;;;;3.13;0.98;;;;;;;;;;4096234;28;20058;-44
2022/12/05 10:06:19;;;;;;;1.27;0.70;;;;;;;;;;4138952;28;20041;-41
2022/12/05 10:08:25;;;;;;;0.90;0.65;;;;;;;;;;4110318;28;20108;-42
2022/12/05 10:10:28;;;;;;;1.75;0.80;;;;;;;;;;4087920;28;20055;-42
2022/12/05 10:12:44;;;;;;;3.03;1.10;;;;;;;;;;4116083;28;22139;-43
2022/12/05 10:15:15;;;;;;;1.17;0.68;;;;;;;;;;4116034;28;20058;-41
2022/12/05 10:17:26;;;;;;;2.33;0.73;;;;;;;;;;4118627;28;20058;-42
2022/12/05 10:19:36;;;;;;;2.03;1.10;;;;;;;;;;4132276;28;20151;-40
2022/12/05 10:21:47;;;;;;;0.90;0.80;;;;;;;;;;4117289;28;20121;-43
2022/12/05 10:23:53;;;;;;;1.20;0.73;;;;;;;;;;4116161;28;20092;-41
2022/12/05 10:26:02;;;;;;;1.33;0.60;;;;;;;;;;4101044;28;20059;-42
2022/12/05 10:28:12;;;;;;;2.55;0.70;;;;;;;;;;4097037;28;20843;-40
2022/12/05 10:30:19;;;;;;;0.73;0.60;;;;;;;;;;4125139;28;20421;-41
2022/12/05 10:32:27;;;;;;;1.08;0.90;;;;;;;;;;4086146;28;20066;-41
2022/12/05 10:34:37;;;;;;;1.10;0.90;;;;;;;;;;4108456;28;20076;-39
2022/12/05 10:36:50;;;;;;;2.58;0.93;;;;;;;;;;4098071;28;20065;-41
2022/12/05 10:38:53;;;;;;;1.17;0.73;;;;;;;;;;4113011;28;20726;-40
2022/12/05 10:40:58;;;;;;;1.27;0.68;;;;;;;;;;4130006;28;20421;-40
2022/12/05 10:42:59;;;;;;;2.33;0.60;;;;;;;;;;4132178;28;20520;-40
2022/12/05 10:45:13;;;;;;;1.15;1.05;;;;;;;;;;4148646;28;20058;-43
2022/12/05 10:47:15;;;;;;;1.83;0.80;;;;;;;;;;4117781;28;20073;-41
2022/12/05 10:49:17;;;;;;;1.13;0.60;;;;;;;;;;4112043;28;20073;-41
2022/12/05 10:51:22;;;;;;;2.95;0.80;;;;;;;;;;4146846;28;20116;-42
2022/12/05 10:53:27;;;;;;;1.15;0.80;;;;;;;;;;4127563;28;20758;-40
2022/12/05 10:55:31;;;;;;;0.93;0.60;;;;;;;;;;4135755;28;20066;-41
2022/12/05 10:57:33;;;;;;;1.20;0.80;;;;;;;;;;4125240;28;20069;-40
2022/12/05 10:59:46;;;;;;;1.25;0.73;;;;;;;;;;4142174;28;20305;-38
2022/12/05 11:01:54;;;;;;;2.33;0.90;;;;;;;;;;4126746;28;20084;-40
2022/12/05 11:04:00;;;;;;;1.42;0.77;;;;;;;;;;4104571;28;20448;-42
2022/12/05 11:06:17;;;;;;;2.97;0.80;;;;;;;;;;4117587;28;20628;-42
2022/12/05 11:08:24;;;;;;;1.15;0.73;;;;;;;;;;4120343;28;20058;-40
2022/12/05 11:10:33;;;;;;;1.58;0.85;;;;;;;;;;4128301;28;20058;-40
2022/12/05 11:12:34;;;;;;;1.00;0.73;;;;;;;;;;4131911;28;20058;-39
2022/12/05 11:14:36;;;;;;;0.95;0.60;;;;;;;;;;4127011;28;20082;-40
2022/12/05 11:16:38;;;;;;;1.45;0.80;;;;;;;;;;4113398;28;20092;-40
2022/12/05 11:18:40;;;;;;;1.52;1.08;;;;;;;;;;4119787;28;20463;-40
2022/12/05 11:20:42;;;;;;;1.15;0.80;;;;;;;;;;4120090;28;20054;-42
2022/12/05 11:22:55;;;;;;;0.80;0.80;;;;;;;;;;4111835;28;20068;-39
2022/12/05 11:24:56;;;;;;;0.90;0.73;;;;;;;;;;4109706;28;20058;-40
2022/12/05 11:27:19;;;;;;;1.75;0.80;;;;;;;;;;4128181;28;20546;-40
2022/12/05 11:29:37;;;;;;;1.13;0.98;;;;;;;;;;4120411;28;20057;-41
2022/12/05 11:31:38;;;;;;;2.17;0.80;;;;;;;;;;4127685;28;20116;-39
2022/12/05 11:33:40;;;;;;;2.13;0.65;;;;;;;;;;4124896;28;20057;-39
2022/12/05 11:35:41;;;;;;;2.47;0.80;;;;;;;;;;4121492;28;20754;-40
2022/12/05 11:37:52;;;;;;;1.48;0.93;;;;;;;;;;4126531;28;20522;-40
2022/12/05 11:39:54;;;;;;;2.45;0.90;;;;;;;;;;4110283;28;20150;-40
2022/12/05 11:42:21;;;;;;;0.98;0.70;;;;;;;;;;4113750;28;20337;-39
2022/12/05 11:44:31;;;;;;;1.30;1.20;;;;;;;;;;4134447;28;20551;-40
2022/12/05 11:46:38;;;;;;;3.20;0.95;;;;;;;;;;4115607;28;20497;-40
2022/12/05 11:49:18;;;;;;;1.23;1.00;;;;;;;;;;4111801;28;20065;-40
2022/12/05 11:51:30;;;;;;;2.47;1.05;;;;;;;;;;4111244;28;20097;-39
2022/12/05 11:53:46;;;;;;;1.88;1.10;;;;;;;;;;4121934;28;20049;-41
2022/12/05 11:55:56;;;;;;;1.17;0.90;;;;;;;;;;4101486;28;20132;-41
2022/12/05 11:58:15;;;;;;;3.42;0.80;;;;;;;;;;4102359;28;20583;-40
2022/12/05 12:00:21;;;;;;;1.70;1.05;;;;;;;;;;4096687;28;20132;-42
2022/12/05 12:02:53;;;;;;;5.18;1.30;;;;;;;;;;4084481;28;20070;-41
2022/12/05 12:05:21;;;;;;;3.42;1.25;;;;;;;;;;4110783;28;21235;-40
2022/12/05 12:08:11;;;;;;;3.17;1.27;;;;;;;;;;4082281;28;20698;-42
2022/12/05 12:10:42;;;;;;;3.15;1.17;;;;;;;;;;4094665;28;20786;-40
2022/12/05 12:12:53;;;;;;;2.05;1.10;;;;;;;;;;4090028;28;20054;-41
2022/12/05 12:14:58;;;;;;;2.55;1.40;;;;;;;;;;4109432;28;20058;-39
2022/12/05 12:17:45;;;;;;;1.67;1.10;;;;;;;;;;4098823;28;20208;-42
2022/12/05 12:20:18;;;;;;;1.90;1.00;;;;;;;;;;4098241;28;21546;-41
2022/12/05 12:22:52;;;;;;;2.10;0.88;;;;;;;;;;4094967;28;20057;-38
2022/12/05 12:25:10;;;;;;;3.13;1.25;;;;;;;;;;4117964;28;20065;-39
2022/12/05 12:27:18;;;;;;;2.03;1.05;;;;;;;;;;4128159;28;20057;-38
2022/12/05 12:29:34;;;;;;;1.25;1.00;;;;;;;;;;4102118;28;20062;-42
2022/12/05 12:32:05;;;;;;;1.73;1.17;;;;;;;;;;4098018;28;20058;-41
2022/12/05 12:34:57;;;;;;;2.38;1.50;;;;;;;;;;4094257;28;20129;-39
2022/12/05 12:37:13;;;;;;;1.65;0.93;;;;;;;;;;4099279;28;21125;-39
2022/12/05 12:39:26;;;;;;;1.98;1.00;;;;;;;;;;4136164;28;20739;-38
2022/12/05 12:42:03;;;;;;;1.27;1.05;;;;;;;;;;4114852;28;20537;-41
2022/12/05 12:44:13;;;;;;;2.40;1.13;;;;;;;;;;4118905;28;20057;-41